createdAt,value
2019-02-16T00:00:23.211Z,96746.1
2019-02-16T00:05:19.783Z,96747.9
2019-02-16T00:10:16.277Z,96750.1
2019-02-16T00:15:12.626Z,96752.8
2019-02-16T00:20:09.374Z,96754.8
2019-02-16T00:25:05.771Z,96757.2
2019-02-16T00:30:02.385Z,96752.9
2019-02-16T00:34:59.028Z,96748.4
2019-02-16T00:39:55.436Z,96742.3
2019-02-16T00:44:52.035Z,96741.1
2019-02-16T00:49:48.622Z,96745.6
2019-02-16T00:54:44.988Z,96740.9
2019-02-16T00:59:41.512Z,96734.2
2019-02-16T01:04:39.196Z,96727.8
2019-02-16T01:09:34.558Z,96725.5
2019-02-16T01:14:29.923Z,96722.8
2019-02-16T01:19:26.468Z,96722.7
2019-02-16T01:24:22.612Z,96714.6
2019-02-16T01:29:19.234Z,96718.5
2019-02-16T01:34:16.023Z,96719.5
2019-02-16T01:39:12.253Z,96715.7
2019-02-16T01:44:09.145Z,96705.1
2019-02-16T01:49:05.554Z,96705.4
2019-02-16T01:54:01.877Z,96704.9
2019-02-16T01:58:58.526Z,96708
2019-02-16T02:03:54.694Z,96709.9
2019-02-16T02:08:51.329Z,96712.8
2019-02-16T02:13:47.605Z,96710.4
2019-02-16T02:18:44.329Z,96709.8
2019-02-16T02:23:40.674Z,96705.3
2019-02-16T02:28:37.225Z,96711
2019-02-16T02:33:33.422Z,96714
2019-02-16T02:38:29.845Z,96627.1
2019-02-16T02:43:26.268Z,96716.5
2019-02-16T02:48:22.780Z,96719.3
2019-02-16T02:53:19.473Z,96637.7
2019-02-16T02:58:15.747Z,96713.6
2019-02-16T03:03:11.937Z,96712.5
2019-02-16T03:08:08.573Z,96723.1
2019-02-16T03:13:04.976Z,96728
2019-02-16T03:18:01.460Z,96726
2019-02-16T03:22:57.346Z,96730.5
2019-02-16T03:27:53.892Z,96724
2019-02-16T03:32:50.786Z,96729.8
2019-02-16T03:37:47.231Z,96730.3
2019-02-16T03:42:43.880Z,96722
2019-02-16T03:47:40.576Z,96688.7
2019-02-16T03:52:37.270Z,96710
2019-02-16T03:57:34.043Z,96630.9
2019-02-16T04:02:30.714Z,96709.5
2019-02-16T04:07:27.122Z,96693.4
2019-02-16T04:12:23.362Z,96697.7
2019-02-16T04:17:19.998Z,96694.5
2019-02-16T04:22:24.115Z,96686.4
2019-02-16T04:27:13.019Z,96690.7
2019-02-16T04:32:08.950Z,96681
2019-02-16T04:37:05.386Z,96681.7
2019-02-16T04:42:01.898Z,96589
2019-02-16T04:46:58.411Z,96700.1
2019-02-16T04:51:54.891Z,96702.5
2019-02-16T04:56:51.220Z,96716.7
2019-02-16T05:01:47.670Z,96718.5
2019-02-16T05:06:44.322Z,96719
2019-02-16T05:11:40.668Z,96731.1
2019-02-16T05:16:37.187Z,96735
2019-02-16T05:21:33.749Z,96736.9
2019-02-16T05:26:30.144Z,96740.8
2019-02-16T05:31:26.666Z,96745.8
2019-02-16T05:36:23.192Z,96747.3
2019-02-16T05:41:19.862Z,96746.7
2019-02-16T05:46:16.360Z,96748.9
2019-02-16T05:51:12.660Z,96750.2
2019-02-16T05:56:09.349Z,96753
2019-02-16T06:01:05.420Z,96759.7
2019-02-16T06:06:02.062Z,96751.1
2019-02-16T06:10:58.088Z,96747.4
2019-02-16T06:15:54.698Z,96748.7
2019-02-16T06:20:51.238Z,96748.5
2019-02-16T06:25:47.803Z,96747
2019-02-16T06:30:44.355Z,96752.5
2019-02-16T06:35:40.913Z,96763.3
2019-02-16T06:40:37.508Z,96766.1
2019-02-16T06:45:33.943Z,96776.3
2019-02-16T06:50:36.677Z,96773.7
2019-02-16T06:55:26.402Z,96784.5
2019-02-16T07:00:23.011Z,96787.5
2019-02-16T07:05:19.531Z,96792.3
2019-02-16T07:10:16.078Z,96785.6
2019-02-16T07:15:12.582Z,96781.7
2019-02-16T07:20:09.104Z,96791.6
2019-02-16T07:25:05.647Z,96801.1
2019-02-16T07:30:02.163Z,96801.5
2019-02-16T07:39:55.333Z,96811.2
2019-02-16T07:44:52.096Z,96820.6
2019-02-16T07:49:48.776Z,96816
2019-02-16T07:54:45.520Z,96812.9
2019-02-16T07:59:42.215Z,96798.3
2019-02-16T08:04:38.687Z,96788.9
2019-02-16T08:09:34.962Z,96795.1
2019-02-16T08:14:31.543Z,96782.4
2019-02-16T08:19:27.760Z,96778.9
2019-02-16T08:24:24.380Z,96774.1
2019-02-16T08:29:20.386Z,96764.6
2019-02-16T08:34:17.035Z,96770.2
2019-02-16T08:39:13.736Z,96769
2019-02-16T08:44:10.335Z,96773.6
2019-02-16T08:49:06.328Z,96770.5
2019-02-16T08:54:02.999Z,96766.4
2019-02-16T08:58:59.800Z,96766.6
2019-02-16T09:03:56.384Z,96765.9
2019-02-16T09:08:52.625Z,96757.9
2019-02-16T09:13:49.224Z,96752.2
2019-02-16T09:18:45.401Z,96753.4
2019-02-16T09:23:42.088Z,96746.3
2019-02-16T09:28:38.713Z,96741.7
2019-02-16T09:33:35.485Z,96740.5
2019-02-16T09:38:31.940Z,96743.2
2019-02-16T09:43:28.546Z,96731.9
2019-02-16T09:48:25.138Z,96733
2019-02-16T09:53:21.673Z,96641.7
2019-02-16T09:58:17.441Z,96785.3
2019-02-16T10:03:14.187Z,96718.5
2019-02-16T10:08:10.862Z,96789.8
2019-02-16T10:13:07.499Z,96788.1
2019-02-16T10:18:04.269Z,96758.4
2019-02-16T10:23:01.238Z,96620
2019-02-16T10:27:57.934Z,96692.1
2019-02-16T10:32:54.667Z,96622.9
2019-02-16T10:37:51.354Z,96619.8
2019-02-16T10:42:48.517Z,96610.6
2019-02-16T10:47:45.277Z,96607
2019-02-16T10:52:42.079Z,96597.5
2019-02-16T10:57:38.748Z,96578.9
2019-02-16T11:02:35.564Z,96568.3
2019-02-16T11:07:32.274Z,96560.5
2019-02-16T11:12:28.884Z,96561.8
2019-02-16T11:17:25.468Z,96556
2019-02-16T11:22:22.191Z,96552.5
2019-02-16T11:27:18.814Z,96545.3
2019-02-16T11:32:15.335Z,96550.6
2019-02-16T11:37:11.791Z,96544
2019-02-16T11:42:08.496Z,96536.7
2019-02-16T11:47:05.171Z,96528
2019-02-16T11:52:02.048Z,96535.5
2019-02-16T11:56:58.343Z,96530.7
2019-02-16T12:01:55.295Z,96592.2
2019-02-16T12:06:52.170Z,96516.5
2019-02-16T12:11:49.148Z,96512.7
2019-02-16T12:16:45.506Z,96506.2
2019-02-16T12:21:42.836Z,96574.7
2019-02-16T12:26:39.031Z,96578.7
2019-02-16T12:31:36.096Z,96573.2
2019-02-16T12:36:32.834Z,96574.7
2019-02-16T12:41:29.591Z,96564.7
2019-02-16T12:46:26.446Z,96560.6
2019-02-16T12:51:23.121Z,96559.7
2019-02-16T12:56:19.673Z,96554.3
2019-02-16T13:01:16.561Z,96538.2
2019-02-16T13:06:13.547Z,96543.6
2019-02-16T13:11:10.470Z,96539.2
2019-02-16T13:16:06.789Z,96534.9
2019-02-16T13:21:03.541Z,96533.4
2019-02-16T13:26:00.162Z,96536.1
2019-02-16T13:30:56.859Z,96533.3
2019-02-16T13:35:53.646Z,96529.8
2019-02-16T13:40:49.839Z,96526.8
2019-02-16T13:45:46.672Z,96523.4
2019-02-16T13:50:43.431Z,96521.8
2019-02-16T13:55:40.137Z,96510.6
2019-02-16T14:00:36.833Z,96506.1
2019-02-16T14:05:33.387Z,96505.8
2019-02-16T14:10:29.970Z,96514.3
2019-02-16T14:15:26.660Z,96517.2
2019-02-16T14:20:23.184Z,96513.2
2019-02-16T14:25:19.571Z,96444.5
2019-02-16T14:30:16.484Z,96513.5
2019-02-16T14:35:12.948Z,96443.7
2019-02-16T14:40:09.691Z,96424.6
2019-02-16T14:45:06.321Z,96498.4
2019-02-16T14:50:02.919Z,96491.4
2019-02-16T14:54:58.903Z,96484.4
2019-02-16T14:59:56.660Z,96487.8
2019-02-16T15:04:53.029Z,96486.8
2019-02-16T15:09:49.923Z,96491.2
2019-02-16T15:14:46.140Z,96487.9
2019-02-16T15:19:42.863Z,96490.7
2019-02-16T15:24:39.327Z,96488
2019-02-16T15:29:36.080Z,96491.2
2019-02-16T15:34:32.516Z,96422.1
2019-02-16T15:39:29.380Z,96496.5
2019-02-16T15:44:26.046Z,96427.5
2019-02-16T15:49:22.696Z,96426.1
2019-02-16T15:54:19.280Z,96501.8
2019-02-16T15:59:15.942Z,96432.2
2019-02-16T16:04:12.505Z,96509.1
2019-02-16T16:09:09.223Z,96490.9
2019-02-16T16:14:06.559Z,96445.1
2019-02-16T16:19:02.174Z,96461.8
2019-02-16T16:23:58.763Z,96456.1
2019-02-16T16:29:00.503Z,96470.2
2019-02-16T16:33:52.216Z,96463
2019-02-16T16:38:48.978Z,96481
2019-02-16T16:43:45.462Z,96474.7
2019-02-16T16:48:42.099Z,96489.5
2019-02-16T16:53:38.811Z,96539.9
2019-02-16T16:58:35.356Z,96502.5
2019-02-16T17:03:31.674Z,96508.2
2019-02-16T17:08:28.241Z,96503.9
2019-02-16T17:13:24.850Z,96512.1
2019-02-16T17:18:21.251Z,96506.7
2019-02-16T17:23:17.700Z,96504.1
2019-02-16T17:28:14.244Z,96507.7
2019-02-16T17:33:10.775Z,96510.1
2019-02-16T17:38:07.274Z,96507.6
2019-02-16T17:43:03.441Z,96519.5
2019-02-16T17:48:00.098Z,96325.7
2019-02-16T17:52:56.531Z,96522
2019-02-16T17:57:53.401Z,96518.4
2019-02-16T18:02:49.908Z,96522.2
2019-02-16T18:07:46.441Z,96524.1
2019-02-16T18:12:42.951Z,96528.3
2019-02-16T18:17:39.818Z,96541.7
2019-02-16T18:22:36.404Z,96537.7
2019-02-16T18:27:33.130Z,96543.8
2019-02-16T18:32:31.461Z,96539.7
2019-02-16T18:37:26.353Z,96543
2019-02-16T18:42:22.890Z,96546.3
2019-02-16T18:47:19.494Z,96541.4
2019-02-16T18:52:16.124Z,96613.7
2019-02-16T18:57:12.339Z,96537.6
2019-02-16T19:02:08.814Z,96563.6
2019-02-16T19:07:05.497Z,96540.1
2019-02-16T19:12:02.058Z,96672.6
2019-02-16T19:16:58.528Z,96616.6
2019-02-16T19:21:54.880Z,96583.2
2019-02-16T19:26:51.524Z,96548.3
2019-02-16T19:31:48.184Z,96560.7
2019-02-16T19:36:44.978Z,96620.9
2019-02-16T19:41:41.535Z,96552.6
2019-02-16T19:46:38.221Z,96712.3
2019-02-16T19:51:34.805Z,96697.5
2019-02-16T19:56:31.573Z,96673.8
2019-02-16T20:01:28.250Z,96707
2019-02-16T20:06:24.910Z,96642.7
2019-02-16T20:11:21.590Z,96631.3
2019-02-16T20:16:18.120Z,96680.5
2019-02-16T20:21:14.709Z,96707.4
2019-02-16T20:26:11.251Z,96698.5
2019-02-16T20:31:07.973Z,96705.6
2019-02-16T20:36:04.123Z,96579.6
2019-02-16T20:41:00.724Z,96709.5
2019-02-16T20:45:57.292Z,96706.8
2019-02-16T20:50:53.785Z,96709
2019-02-16T20:55:50.512Z,96718.1
2019-02-16T21:00:47.236Z,96725.6
2019-02-16T21:05:43.804Z,96703.8
2019-02-16T21:10:40.217Z,96697.9
2019-02-16T21:20:32.869Z,96714.5
2019-02-16T21:25:29.830Z,96643.7
2019-02-16T21:30:26.373Z,96559
2019-02-16T21:35:23.140Z,96637.1
2019-02-16T21:40:19.615Z,96643
2019-02-16T21:45:16.225Z,96644.4
2019-02-16T21:50:12.804Z,96643.3
2019-02-16T21:55:09.524Z,96640.8
2019-02-16T22:00:06.242Z,96645.1
2019-02-16T22:05:03.022Z,96608.3
2019-02-16T22:09:59.629Z,96634.6
2019-02-16T22:14:56.303Z,96627.8
2019-02-16T22:19:52.937Z,96547.3
2019-02-16T22:24:49.670Z,96625.7
2019-02-16T22:29:46.368Z,96596.5
2019-02-16T22:34:42.911Z,96627.1
2019-02-16T22:39:39.439Z,96621.3
2019-02-16T22:44:35.891Z,96623.3
2019-02-16T22:49:32.914Z,96542.1
2019-02-16T22:54:29.646Z,96622.4
2019-02-16T22:59:26.439Z,96623.6
2019-02-16T23:04:22.929Z,96617
2019-02-16T23:09:19.715Z,96614.9
2019-02-16T23:14:16.423Z,96614.9
2019-02-16T23:19:12.649Z,96614.2
2019-02-16T23:24:09.514Z,96609.3
2019-02-16T23:29:06.145Z,96610.6
2019-02-16T23:34:02.703Z,96609.6
2019-02-16T23:38:59.081Z,96601.9
2019-02-16T23:43:55.676Z,96606.9
2019-02-16T23:48:52.369Z,96604.4
2019-02-16T23:53:49.199Z,96536.7
2019-02-16T23:58:49.138Z,96606.8
